createdAt,value
2019-03-22T00:00:31.274Z,99.50
2019-03-22T00:03:02.265Z,99.50
2019-03-22T00:05:32.728Z,99.60
2019-03-22T00:08:03.430Z,99.60
2019-03-22T00:10:34.133Z,99.60
2019-03-22T00:13:04.889Z,99.70
2019-03-22T00:15:35.428Z,99.80
2019-03-22T00:18:06.149Z,99.80
2019-03-22T00:20:36.809Z,99.80
2019-03-22T00:23:07.340Z,99.90
2019-03-22T00:25:38.050Z,99.90
2019-03-22T00:28:08.769Z,99.90
2019-03-22T00:30:39.406Z,99.90
2019-03-22T00:33:10.524Z,99.90
2019-03-22T00:35:41.245Z,99.90
2019-03-22T00:38:11.807Z,99.90
2019-03-22T00:40:44.290Z,99.90
2019-03-22T00:43:14.902Z,99.90
2019-03-22T00:45:45.614Z,99.90
2019-03-22T00:48:16.237Z,99.90
2019-03-22T00:50:46.976Z,99.90
2019-03-22T00:53:17.533Z,99.90
2019-03-22T00:55:49.963Z,99.90
2019-03-22T00:58:21.634Z,99.90
2019-03-22T01:00:52.625Z,99.90
2019-03-22T01:03:23.151Z,99.90
2019-03-22T01:05:53.818Z,99.90
2019-03-22T01:08:24.761Z,99.90
2019-03-22T01:10:55.487Z,99.90
2019-03-22T01:13:26.170Z,99.90
2019-03-22T01:15:58.065Z,99.90
2019-03-22T01:18:28.789Z,99.90
2019-03-22T01:20:59.546Z,99.90
2019-03-22T01:23:30.271Z,99.90
2019-03-22T01:26:01.021Z,99.90
2019-03-22T01:28:31.607Z,99.90
2019-03-22T01:31:02.194Z,99.90
2019-03-22T01:33:32.852Z,99.90
2019-03-22T01:36:03.483Z,99.90
2019-03-22T01:38:34.144Z,99.90
2019-03-22T01:41:04.843Z,99.90
2019-03-22T01:43:35.785Z,99.90
2019-03-22T01:46:06.487Z,99.90
2019-03-22T01:48:37.144Z,99.90
2019-03-22T01:51:07.836Z,99.90
2019-03-22T01:53:38.403Z,99.90
2019-03-22T01:56:09.055Z,99.90
2019-03-22T01:58:39.543Z,99.90
2019-03-22T02:01:10.103Z,99.90
2019-03-22T02:03:40.803Z,99.90
2019-03-22T02:06:11.454Z,99.90
2019-03-22T02:08:41.955Z,99.90
2019-03-22T02:11:12.469Z,99.90
2019-03-22T02:13:43.123Z,99.90
2019-03-22T02:16:13.720Z,99.90
2019-03-22T02:18:44.543Z,99.90
2019-03-22T02:21:15.199Z,99.90
2019-03-22T02:23:45.916Z,99.90
2019-03-22T02:26:16.544Z,99.90
2019-03-22T02:28:47.211Z,99.90
2019-03-22T02:31:18.093Z,99.90
2019-03-22T02:33:48.593Z,99.90
2019-03-22T02:36:19.205Z,99.90
2019-03-22T02:38:49.882Z,99.90
2019-03-22T02:41:20.477Z,99.90
2019-03-22T02:43:54.432Z,99.90
2019-03-22T02:46:23.490Z,99.90
2019-03-22T02:48:54.358Z,99.90
2019-03-22T02:51:24.915Z,99.90
2019-03-22T02:53:55.615Z,99.90
2019-03-22T02:56:26.224Z,99.90
2019-03-22T02:58:59.340Z,99.90
2019-03-22T03:01:29.411Z,99.90
2019-03-22T03:04:00.022Z,99.90
2019-03-22T03:06:30.685Z,99.90
2019-03-22T03:09:01.419Z,99.90
2019-03-22T03:11:33.620Z,99.90
2019-03-22T03:14:04.322Z,99.90
2019-03-22T03:16:34.956Z,99.90
2019-03-22T03:19:05.647Z,99.90
2019-03-22T03:21:36.362Z,99.90
2019-03-22T03:24:07.046Z,99.90
2019-03-22T03:26:37.717Z,99.90
2019-03-22T03:29:08.323Z,99.90
2019-03-22T03:31:39.046Z,99.90
2019-03-22T03:34:09.706Z,99.90
2019-03-22T03:36:40.373Z,99.90
2019-03-22T03:39:10.910Z,99.90
2019-03-22T03:41:41.528Z,99.90
2019-03-22T03:44:12.206Z,99.90
2019-03-22T03:46:42.817Z,99.90
2019-03-22T03:49:13.610Z,99.90
2019-03-22T03:51:44.465Z,99.90
2019-03-22T03:54:15.332Z,99.90
2019-03-22T03:56:45.893Z,99.90
2019-03-22T03:59:16.586Z,99.90
2019-03-22T04:01:54.954Z,99.90
2019-03-22T04:04:27.833Z,99.90
2019-03-22T04:06:58.594Z,99.90
2019-03-22T04:09:37.309Z,99.90
2019-03-22T04:12:20.451Z,99.90
2019-03-22T04:14:52.269Z,99.90
2019-03-22T04:17:22.880Z,99.90
2019-03-22T04:19:53.700Z,99.90
2019-03-22T04:22:24.405Z,99.90
2019-03-22T04:24:55.086Z,99.90
2019-03-22T04:27:27.698Z,99.90
2019-03-22T04:30:05.706Z,99.90
2019-03-22T04:32:36.663Z,99.90
2019-03-22T04:35:08.146Z,99.90
2019-03-22T04:37:51.540Z,99.90
2019-03-22T04:40:27.850Z,99.90
2019-03-22T04:43:12.200Z,99.90
2019-03-22T04:45:43.160Z,99.90
2019-03-22T04:48:28.177Z,99.90
2019-03-22T04:51:01.704Z,99.90
2019-03-22T04:53:37.884Z,99.90
2019-03-22T04:56:17.112Z,99.90
2019-03-22T04:58:57.130Z,99.90
2019-03-22T05:01:29.130Z,99.90
2019-03-22T05:04:00.115Z,99.90
2019-03-22T05:06:32.824Z,99.90
2019-03-22T05:09:06.303Z,99.90
2019-03-22T05:11:37.405Z,99.90
2019-03-22T05:14:08.515Z,99.90
2019-03-22T05:16:51.344Z,99.90
2019-03-22T05:19:49.505Z,99.90
2019-03-22T05:22:22.263Z,99.90
2019-03-22T05:24:54.786Z,99.90
2019-03-22T05:27:26.772Z,99.90
2019-03-22T05:29:59.375Z,99.90
2019-03-22T05:32:34.848Z,99.90
2019-03-22T05:35:07.445Z,99.90
2019-03-22T05:37:38.248Z,99.90
2019-03-22T05:40:21.315Z,99.90
2019-03-22T05:43:02.284Z,99.90
2019-03-22T05:45:33.344Z,99.90
2019-03-22T05:48:04.111Z,99.90
2019-03-22T05:50:34.754Z,99.90
2019-03-22T05:53:05.872Z,99.90
2019-03-22T05:55:36.527Z,99.90
2019-03-22T05:58:08.827Z,99.90
2019-03-22T06:00:45.637Z,99.90
2019-03-22T06:03:21.520Z,99.90
2019-03-22T06:06:04.453Z,99.90
2019-03-22T06:08:35.207Z,99.90
2019-03-22T06:11:06.530Z,99.90
2019-03-22T06:13:37.203Z,99.90
2019-03-22T06:16:17.998Z,99.90
2019-03-22T06:18:50.498Z,99.90
2019-03-22T06:21:33.600Z,99.90
2019-03-22T06:24:04.546Z,99.90
2019-03-22T06:26:50.206Z,99.90
2019-03-22T06:29:20.848Z,99.90
2019-03-22T06:31:51.524Z,99.90
2019-03-22T06:34:22.224Z,99.90
2019-03-22T06:37:09.620Z,99.90
2019-03-22T06:39:52.562Z,99.90
2019-03-22T06:42:34.453Z,99.90
2019-03-22T06:45:14.531Z,99.90
2019-03-22T06:47:45.531Z,99.90
2019-03-22T06:50:16.405Z,99.90
2019-03-22T06:52:52.199Z,99.90
2019-03-22T06:55:27.140Z,99.90
2019-03-22T06:57:58.440Z,99.90
2019-03-22T07:00:42.853Z,99.90
2019-03-22T07:03:31.860Z,99.90
2019-03-22T07:06:16.756Z,99.90
2019-03-22T07:09:18.839Z,99.90
2019-03-22T07:12:00.371Z,99.90
2019-03-22T07:14:33.252Z,99.90
2019-03-22T07:17:24.147Z,99.90
2019-03-22T07:20:06.980Z,99.90
2019-03-22T07:22:37.733Z,99.90
2019-03-22T07:25:09.393Z,99.90
2019-03-22T07:27:40.212Z,99.90
2019-03-22T07:30:18.727Z,99.90
2019-03-22T07:32:43.752Z,99.90
2019-03-22T07:35:24.959Z,99.90
2019-03-22T07:38:06.740Z,99.90
2019-03-22T07:40:37.464Z,99.90
2019-03-22T07:43:09.686Z,99.90
2019-03-22T07:45:40.318Z,99.90
2019-03-22T07:48:11.152Z,99.90
2019-03-22T07:50:48.162Z,99.90
2019-03-22T07:53:18.765Z,99.90
2019-03-22T07:55:49.591Z,99.90
2019-03-22T07:58:30.458Z,99.90
2019-03-22T08:01:01.176Z,99.90
2019-03-22T08:03:31.855Z,99.90
2019-03-22T08:06:02.650Z,99.90
2019-03-22T08:08:33.578Z,99.90
2019-03-22T08:11:04.477Z,99.90
2019-03-22T08:13:35.655Z,99.90
2019-03-22T08:16:06.586Z,99.90
2019-03-22T08:18:37.524Z,99.90
2019-03-22T08:21:08.256Z,99.90
2019-03-22T08:23:38.888Z,99.90
2019-03-22T08:26:09.745Z,99.90
2019-03-22T08:28:42.576Z,99.90
2019-03-22T08:31:13.313Z,99.90
2019-03-22T08:34:05.264Z,99.90
2019-03-22T08:36:49.691Z,99.90
2019-03-22T08:39:34.323Z,99.90
2019-03-22T08:42:17.178Z,99.90
2019-03-22T08:52:52.648Z,99.90
2019-03-22T08:55:23.610Z,99.60
2019-03-22T08:57:54.337Z,99.70
2019-03-22T09:00:38.283Z,99.70
2019-03-22T09:02:57.557Z,99.60
2019-03-22T09:05:28.372Z,99.50
2019-03-22T09:07:59.286Z,99.30
2019-03-22T09:10:30.024Z,99.00
2019-03-22T09:13:00.896Z,99.10
2019-03-22T09:15:41.163Z,98.60
2019-03-22T09:18:04.101Z,98.10
2019-03-22T09:20:34.923Z,97.70
2019-03-22T09:23:06.637Z,97.90
2019-03-22T09:25:37.377Z,97.50
2019-03-22T09:28:10.258Z,97.30
2019-03-22T09:30:40.581Z,97.30
2019-03-22T09:33:13.398Z,96.60
2019-03-22T09:35:43.719Z,96.90
2019-03-22T09:38:14.327Z,96.10
2019-03-22T09:40:45.127Z,95.60
2019-03-22T09:43:15.720Z,96.00
2019-03-22T09:45:46.409Z,95.10
2019-03-22T09:48:16.953Z,94.30
2019-03-22T09:50:47.709Z,93.40
2019-03-22T09:53:18.535Z,91.30
2019-03-22T09:55:49.318Z,91.90
2019-03-22T09:58:21.047Z,91.70
2019-03-22T10:00:51.890Z,91.70
2019-03-22T10:03:22.910Z,91.80
2019-03-22T10:05:53.783Z,91.00
2019-03-22T10:08:24.593Z,90.50
2019-03-22T10:10:55.381Z,90.10
2019-03-22T10:13:26.468Z,88.60
2019-03-22T10:15:57.365Z,88.70
2019-03-22T10:18:28.210Z,89.30
2019-03-22T10:20:59.045Z,89.20
2019-03-22T10:23:34.088Z,89.90
2019-03-22T10:26:04.679Z,89.20
2019-03-22T10:28:35.386Z,85.60
2019-03-22T10:31:10.153Z,77.80
2019-03-22T10:33:41.109Z,71.60
2019-03-22T10:36:11.763Z,69.80
2019-03-22T10:38:42.384Z,68.60
2019-03-22T10:41:13.432Z,69.40
2019-03-22T10:43:44.029Z,69.20
2019-03-22T10:46:14.597Z,70.80
2019-03-22T10:48:45.337Z,73.20
2019-03-22T10:51:15.855Z,76.30
2019-03-22T10:53:46.537Z,79.80
2019-03-22T10:56:17.065Z,74.00
2019-03-22T10:58:47.624Z,67.70
2019-03-22T11:01:20.144Z,65.70
2019-03-22T11:03:50.699Z,67.70
2019-03-22T11:06:26.314Z,68.60
2019-03-22T11:08:55.455Z,71.50
2019-03-22T11:11:26.274Z,73.10
2019-03-22T11:13:57.004Z,75.30
2019-03-22T11:16:27.621Z,71.20
2019-03-22T11:18:58.358Z,58.80
2019-03-22T11:21:29.070Z,54.20
2019-03-22T11:23:59.719Z,53.40
2019-03-22T11:26:30.344Z,54.70
2019-03-22T11:29:00.945Z,56.20
2019-03-22T11:31:39.506Z,58.00
2019-03-22T11:34:04.201Z,59.80
2019-03-22T11:36:34.744Z,64.10
2019-03-22T11:39:15.415Z,58.80
2019-03-22T11:41:44.056Z,58.60
2019-03-22T11:44:15.719Z,59.60
2019-03-22T11:46:46.495Z,61.20
2019-03-22T11:49:16.971Z,63.60
2019-03-22T11:51:47.863Z,64.50
2019-03-22T11:54:18.501Z,66.20
2019-03-22T11:56:49.019Z,67.50
2019-03-22T11:59:19.455Z,67.10
2019-03-22T12:01:50.076Z,66.40
2019-03-22T12:04:21.835Z,65.90
2019-03-22T12:06:52.441Z,60.70
2019-03-22T12:09:23.461Z,60.10
2019-03-22T12:11:53.938Z,58.60
2019-03-22T12:14:24.518Z,58.80
2019-03-22T12:16:56.616Z,59.30
2019-03-22T12:19:27.443Z,56.60
2019-03-22T12:21:58.085Z,55.20
2019-03-22T12:24:28.783Z,54.30
2019-03-22T12:26:59.597Z,52.20
2019-03-22T12:29:30.256Z,52.00
2019-03-22T12:32:00.797Z,51.10
2019-03-22T12:34:31.559Z,51.40
2019-03-22T12:37:02.196Z,53.00
2019-03-22T12:39:32.845Z,55.50
2019-03-22T12:42:03.582Z,56.20
2019-03-22T12:44:34.240Z,57.90
2019-03-22T12:47:04.996Z,58.50
2019-03-22T12:49:35.590Z,57.70
2019-03-22T12:52:06.222Z,60.30
2019-03-22T12:54:36.953Z,60.30
2019-03-22T12:57:07.987Z,59.00
2019-03-22T12:59:38.723Z,59.50
2019-03-22T13:02:09.493Z,60.00
2019-03-22T13:04:40.637Z,60.80
2019-03-22T13:07:11.337Z,62.10
2019-03-22T13:09:41.924Z,60.00
2019-03-22T13:12:14.136Z,57.30
2019-03-22T13:14:44.778Z,56.90
2019-03-22T13:17:15.436Z,58.70
2019-03-22T13:19:47.142Z,57.60
2019-03-22T13:22:18.768Z,57.40
2019-03-22T13:24:49.320Z,55.50
2019-03-22T13:27:19.891Z,55.20
2019-03-22T13:29:50.489Z,55.30
2019-03-22T13:32:21.183Z,54.10
2019-03-22T13:34:51.729Z,53.30
2019-03-22T13:37:22.307Z,47.50
2019-03-22T13:39:52.983Z,47.70
2019-03-22T13:42:25.176Z,48.40
2019-03-22T13:44:55.857Z,50.10
2019-03-22T13:47:26.612Z,51.30
2019-03-22T13:49:57.297Z,50.90
2019-03-22T13:52:27.926Z,50.70
2019-03-22T13:54:58.435Z,50.70
2019-03-22T13:57:30.270Z,50.50
2019-03-22T14:00:00.852Z,51.30
2019-03-22T14:02:31.597Z,51.40
2019-03-22T14:05:02.304Z,51.00
2019-03-22T14:07:32.928Z,50.60
2019-03-22T14:10:03.575Z,51.40
2019-03-22T14:12:37.445Z,51.10
2019-03-22T14:15:08.763Z,50.70
2019-03-22T14:17:39.435Z,50.00
2019-03-22T14:20:11.480Z,50.20
2019-03-22T14:22:42.562Z,49.00
2019-03-22T14:25:13.205Z,48.50
2019-03-22T14:27:45.737Z,49.20
2019-03-22T14:30:16.995Z,49.30
2019-03-22T14:32:47.538Z,49.40
2019-03-22T14:35:18.057Z,49.00
2019-03-22T14:37:48.743Z,49.20
2019-03-22T14:40:19.300Z,49.30
2019-03-22T14:42:49.923Z,48.40
2019-03-22T14:45:20.691Z,48.70
2019-03-22T14:47:51.224Z,49.40
2019-03-22T14:50:21.879Z,49.00
2019-03-22T14:52:53.513Z,48.90
2019-03-22T14:55:25.503Z,47.90
2019-03-22T14:57:56.410Z,47.50
2019-03-22T15:00:26.978Z,47.30
2019-03-22T15:02:57.862Z,47.60
2019-03-22T15:05:28.403Z,48.40
2019-03-22T15:07:59.122Z,47.40
2019-03-22T15:10:29.775Z,47.70
2019-03-22T15:13:00.691Z,47.80
2019-03-22T15:15:46.601Z,48.10
2019-03-22T15:18:36.203Z,48.00
2019-03-22T15:21:23.217Z,47.10
2019-03-22T15:24:12.948Z,45.20
2019-03-22T15:27:04.169Z,45.20
2019-03-22T15:29:43.303Z,44.30
2019-03-22T15:32:32.935Z,44.00
2019-03-22T15:35:22.623Z,43.50
2019-03-22T15:38:06.199Z,44.20
2019-03-22T15:40:37.044Z,44.20
2019-03-22T15:43:07.842Z,44.70
2019-03-22T15:45:38.429Z,44.10
2019-03-22T15:48:09.102Z,44.80
2019-03-22T15:50:39.903Z,45.20
2019-03-22T15:53:10.543Z,45.60
2019-03-22T15:55:41.277Z,46.00
2019-03-22T15:58:11.948Z,46.00
2019-03-22T16:00:42.626Z,46.30
2019-03-22T16:03:13.330Z,47.20
2019-03-22T16:05:45.025Z,47.20
2019-03-22T16:08:16.266Z,48.00
2019-03-22T16:10:48.305Z,48.10
2019-03-22T16:13:23.035Z,48.60
2019-03-22T16:16:04.664Z,49.30
2019-03-22T16:18:41.083Z,50.10
2019-03-22T16:21:22.789Z,50.50
2019-03-22T16:24:03.685Z,51.20
2019-03-22T16:26:35.640Z,52.10
2019-03-22T16:29:09.911Z,52.60
2019-03-22T16:31:41.450Z,53.20
2019-03-22T16:34:13.593Z,53.50
2019-03-22T16:36:45.659Z,54.10
2019-03-22T16:39:22.157Z,54.70
2019-03-22T16:42:10.148Z,55.10
2019-03-22T16:44:41.998Z,55.30
2019-03-22T16:47:12.544Z,55.60
2019-03-22T16:49:47.641Z,55.80
2019-03-22T16:52:18.754Z,56.10
2019-03-22T16:54:52.234Z,57.10
2019-03-22T16:57:23.757Z,57.50
2019-03-22T16:59:54.630Z,58.00
2019-03-22T17:02:36.437Z,58.20
2019-03-22T17:05:15.410Z,58.90
2019-03-22T17:07:59.996Z,59.90
2019-03-22T17:10:44.768Z,60.90
2019-03-22T17:13:17.023Z,61.30
2019-03-22T17:15:54.304Z,61.80
2019-03-22T17:18:33.537Z,61.90
2019-03-22T17:21:10.979Z,62.60
2019-03-22T17:23:43.504Z,63.20
2019-03-22T17:26:14.477Z,63.80
2019-03-22T17:28:46.295Z,65.00
2019-03-22T17:31:22.038Z,65.90
2019-03-22T17:33:53.083Z,66.80
2019-03-22T17:36:23.808Z,67.80
2019-03-22T17:38:54.571Z,68.80
2019-03-22T17:41:25.236Z,70.30
2019-03-22T17:43:56.033Z,71.50
2019-03-22T17:46:29.974Z,73.10
2019-03-22T17:49:00.611Z,74.00
2019-03-22T17:51:36.413Z,75.00
2019-03-22T17:54:15.033Z,75.60
2019-03-22T17:56:57.950Z,75.60
2019-03-22T17:59:43.756Z,75.80
2019-03-22T18:02:21.138Z,76.10
2019-03-22T18:04:59.529Z,77.70
2019-03-22T18:07:36.855Z,79.60
2019-03-22T18:10:14.567Z,81.20
2019-03-22T18:12:53.176Z,82.70
2019-03-22T18:15:38.549Z,83.60
2019-03-22T18:18:17.040Z,83.50
2019-03-22T18:20:50.779Z,84.70
2019-03-22T18:24:08.275Z,86.80
2019-03-22T18:26:43.326Z,87.20
2019-03-22T18:29:13.822Z,88.40
2019-03-22T18:31:44.516Z,88.00
2019-03-22T18:34:15.317Z,87.20
2019-03-22T18:36:46.365Z,88.10
2019-03-22T18:39:16.956Z,88.40
2019-03-22T18:41:47.692Z,88.80
2019-03-22T18:44:18.446Z,89.00
2019-03-22T18:46:49.164Z,90.00
2019-03-22T18:49:19.786Z,89.60
2019-03-22T18:51:50.403Z,89.80
2019-03-22T18:54:20.976Z,90.20
2019-03-22T18:56:52.057Z,90.70
2019-03-22T18:59:22.664Z,91.10
2019-03-22T19:01:53.361Z,91.00
2019-03-22T19:04:24.076Z,91.20
2019-03-22T19:06:54.682Z,91.20
2019-03-22T19:09:47.519Z,91.20
2019-03-22T19:12:39.619Z,91.50
2019-03-22T19:15:19.682Z,91.40
2019-03-22T19:17:55.993Z,91.90
2019-03-22T19:20:37.246Z,91.90
2019-03-22T19:23:14.293Z,92.00
2019-03-22T19:26:01.256Z,92.40
2019-03-22T19:28:45.083Z,92.90
2019-03-22T19:31:18.198Z,93.00
2019-03-22T19:33:55.788Z,93.70
2019-03-22T19:36:27.139Z,94.00
2019-03-22T19:38:59.367Z,94.10
2019-03-22T19:41:37.596Z,93.90
2019-03-22T19:44:35.187Z,94.30
2019-03-22T19:47:13.072Z,94.00
2019-03-22T19:49:48.598Z,93.90
2019-03-22T19:52:30.229Z,93.90
2019-03-22T19:55:22.839Z,93.80
2019-03-22T19:58:10.046Z,93.80
2019-03-22T20:01:09.022Z,94.10
2019-03-22T20:03:43.229Z,95.00
2019-03-22T20:06:24.463Z,94.30
2019-03-22T20:08:59.298Z,94.10
2019-03-22T20:11:34.218Z,93.70
2019-03-22T20:14:06.338Z,94.20
2019-03-22T20:16:39.498Z,94.60
2019-03-22T20:19:11.396Z,94.60
2019-03-22T20:21:44.016Z,94.60
2019-03-22T20:24:15.937Z,94.70
2019-03-22T20:26:46.628Z,94.60
2019-03-22T20:29:28.774Z,94.70
2019-03-22T20:32:13.084Z,95.00
2019-03-22T20:34:46.545Z,95.40
2019-03-22T20:37:24.044Z,95.40
2019-03-22T20:39:59.488Z,95.40
2019-03-22T20:42:34.303Z,95.70
2019-03-22T20:45:23.282Z,95.60
2019-03-22T20:47:50.155Z,95.70
2019-03-22T20:50:35.362Z,95.70
2019-03-22T20:53:06.305Z,95.80
2019-03-22T20:55:37.763Z,96.00
2019-03-22T20:58:25.407Z,96.20
2019-03-22T21:01:10.832Z,96.50
2019-03-22T21:04:02.349Z,96.20
2019-03-22T21:07:03.976Z,96.10
2019-03-22T21:09:42.139Z,96.00
2019-03-22T21:12:23.515Z,96.30
2019-03-22T21:14:59.171Z,96.40
2019-03-22T21:17:41.234Z,96.60
2019-03-22T21:20:26.065Z,96.60
2019-03-22T21:23:01.209Z,96.60
2019-03-22T21:25:38.464Z,96.50
2019-03-22T21:28:16.140Z,96.70
2019-03-22T21:30:49.886Z,96.80
2019-03-22T21:33:20.551Z,97.00
2019-03-22T21:35:51.211Z,96.70
2019-03-22T21:38:36.853Z,96.30
2019-03-22T21:41:16.699Z,96.20
2019-03-22T21:43:48.433Z,96.60
2019-03-22T21:46:20.092Z,96.60
2019-03-22T21:48:51.829Z,96.50
2019-03-22T21:51:35.932Z,96.60
2019-03-22T21:54:07.208Z,96.80
2019-03-22T21:56:38.475Z,97.00
2019-03-22T21:59:12.644Z,97.20
2019-03-22T22:01:44.044Z,97.10
2019-03-22T22:04:15.858Z,97.00
2019-03-22T22:06:47.825Z,97.10
2019-03-22T22:09:18.567Z,96.70
2019-03-22T22:11:49.258Z,96.40
2019-03-22T22:14:20.753Z,96.60
2019-03-22T22:16:51.425Z,96.90
2019-03-22T22:19:21.957Z,96.80
2019-03-22T22:21:52.461Z,97.10
2019-03-22T22:24:22.985Z,97.10
2019-03-22T22:26:53.626Z,97.20
2019-03-22T22:29:24.194Z,97.10
2019-03-22T22:31:55.848Z,97.40
2019-03-22T22:34:26.349Z,97.60
2019-03-22T22:36:56.893Z,97.80
2019-03-22T22:39:27.518Z,97.40
2019-03-22T22:41:58.153Z,97.30
2019-03-22T22:44:28.885Z,97.30
2019-03-22T22:46:59.426Z,97.40
2019-03-22T22:49:30.035Z,97.40
2019-03-22T22:52:00.715Z,97.50
2019-03-22T22:54:31.570Z,97.50
2019-03-22T22:57:03.834Z,97.50
2019-03-22T22:59:34.442Z,97.40
2019-03-22T23:02:05.170Z,97.60
2019-03-22T23:04:35.847Z,97.60
2019-03-22T23:07:06.551Z,97.70
2019-03-22T23:09:37.132Z,97.50
2019-03-22T23:12:07.829Z,97.60
2019-03-22T23:14:38.602Z,97.70
2019-03-22T23:17:09.222Z,97.90
2019-03-22T23:19:39.794Z,97.90
2019-03-22T23:22:13.384Z,97.80
2019-03-22T23:24:45.865Z,97.80
2019-03-22T23:27:16.585Z,98.20
2019-03-22T23:29:47.221Z,98.10
2019-03-22T23:32:18.886Z,98.20
2019-03-22T23:34:58.650Z,98.20
2019-03-22T23:37:23.144Z,98.20
2019-03-22T23:39:53.741Z,98.50
2019-03-22T23:42:24.545Z,98.00
2019-03-22T23:44:56.274Z,97.80
2019-03-22T23:47:26.992Z,97.80
2019-03-22T23:49:57.613Z,97.90
2019-03-22T23:52:28.412Z,97.70
2019-03-22T23:54:58.890Z,97.90
2019-03-22T23:57:29.464Z,98.20
2019-03-22T23:59:59.948Z,98.40
